Time;durP1;ratioP1;P1;durP2;ratioP2;P2;SDS_P1;SDS_P2;PMS_P1;PMS_P2;Temp;Humidity;BMP_temperature;BMP_pressure;BME280_temperature;BME280_humidity;BME280_pressure;Samples;Min_cycle;Max_cycle;Signal;HPM_P1;HPM_P2
2021/11/07 00:02:03;;;;;;;44.53;23.12;;;;;;;2.00;72.31;100890.53;2037347;87;27800;-69
2021/11/07 00:05:03;;;;;;;40.92;21.75;;;;;;;1.97;72.37;100887.05;2064063;86;28666;-63
2021/11/07 00:11:13;;;;;;;38.92;21.57;;;;;;;1.90;72.31;100885.76;2065930;86;34178;-65
2021/11/07 00:14:11;;;;;;;46.37;22.00;;;;;;;1.86;72.34;100879.59;2046126;86;29340;-70
2021/11/07 00:17:16;;;;;;;43.50;23.45;;;;;;;1.82;72.29;100867.30;2065832;86;27667;-65
2021/11/07 00:20:23;;;;;;;42.67;22.50;;;;;;;1.78;72.45;100868.19;2065926;86;32406;-63
2021/11/07 00:23:43;;;;;;;43.28;22.40;;;;;;;1.76;72.41;100869.95;2065367;86;31045;-65
2021/11/07 00:26:49;;;;;;;47.48;23.12;;;;;;;1.73;72.50;100861.61;2063641;85;34420;-66
2021/11/07 00:29:48;;;;;;;41.00;22.05;;;;;;;1.70;72.50;100852.80;2062273;86;30503;-64
2021/11/07 00:32:53;;;;;;;47.03;22.52;;;;;;;1.65;72.47;100843.58;2064428;86;27628;-68
2021/11/07 00:39:19;;;;;;;43.48;21.25;;;;;;;1.59;72.61;100834.34;2090376;84;31434;-70
2021/11/07 00:45:26;;;;;;;38.78;20.37;;;;;;;1.54;72.62;100829.09;2089516;84;30242;-65
2021/11/07 00:48:32;;;;;;;42.17;22.05;;;;;;;1.51;72.67;100828.67;2036545;86;27713;-65
2021/11/07 00:51:35;;;;;;;43.45;21.80;;;;;;;1.48;72.68;100830.00;2023720;87;30864;-66
2021/11/07 01:04:03;;;;;;;43.78;20.17;;;;;;;1.36;72.90;100819.48;2049254;86;27685;-63
2021/11/07 01:07:05;;;;;;;43.30;21.30;;;;;;;1.35;72.90;100821.23;2048785;86;28661;-63
2021/11/07 01:10:08;;;;;;;42.20;20.90;;;;;;;1.33;72.91;100810.25;2048810;86;32208;-64
2021/11/07 01:13:10;;;;;;;39.60;19.90;;;;;;;1.31;72.98;100810.27;2036928;86;33396;-63
2021/11/07 01:16:12;;;;;;;41.53;21.12;;;;;;;1.30;73.03;100808.94;2035970;87;30494;-66
2021/11/07 01:19:14;;;;;;;35.92;19.57;;;;;;;1.28;72.99;100801.04;2036363;87;27651;-65
2021/11/07 01:22:20;;;;;;;37.03;20.30;;;;;;;1.26;72.94;100789.61;2035841;87;29184;-65
2021/11/07 01:25:21;;;;;;;35.33;19.65;;;;;;;1.24;73.00;100784.77;2003887;87;31065;-64
2021/11/07 01:28:24;;;;;;;39.03;19.12;;;;;;;1.23;72.97;100780.83;2003438;88;33333;-63
2021/11/07 01:31:26;;;;;;;37.75;18.85;;;;;;;1.20;72.99;100784.33;2003686;88;29367;-65
2021/11/07 01:37:43;;;;;;;34.13;17.60;;;;;;;1.17;73.06;100773.78;2020272;88;29058;-65
2021/11/07 01:41:05;;;;;;;34.20;18.93;;;;;;;1.13;73.19;100766.33;2020044;87;31040;-69
2021/11/07 01:43:46;;;;;;;22.80;12.50;;;;;;;1.12;73.19;100759.30;2016493;86;33366;-69
2021/11/07 01:46:51;;;;;;;32.75;16.57;;;;;;;1.10;73.21;100753.59;2048662;86;29377;-69
2021/11/07 01:49:52;;;;;;;29.63;16.90;;;;;;;1.09;73.21;100756.66;2048916;86;27712;-70
2021/11/07 01:53:04;;;;;;;29.67;16.62;;;;;;;1.07;73.19;100750.53;2072219;85;29112;-69
2021/11/07 01:56:03;;;;;;;26.97;15.28;;;;;;;1.04;73.30;100741.30;2065891;85;30844;-67
2021/11/07 01:59:05;;;;;;;29.55;16.87;;;;;;;1.04;73.61;100731.61;2066337;85;33374;-71
2021/11/07 02:02:12;;;;;;;27.73;15.23;;;;;;;1.05;73.82;100720.17;2066605;86;30465;-67
2021/11/07 02:05:10;;;;;;;31.27;16.82;;;;;;;1.07;73.94;100720.20;2066079;85;27719;-71
2021/11/07 02:08:12;;;;;;;27.98;15.88;;;;;;;1.09;74.30;100708.30;2066903;85;29278;-70
2021/11/07 02:11:15;;;;;;;28.42;16.00;;;;;;;1.12;74.42;100697.28;2082130;85;31445;-69
2021/11/07 02:14:17;;;;;;;27.62;14.55;;;;;;;1.18;74.62;100683.17;2082443;85;33704;-67
2021/11/07 02:17:19;;;;;;;26.95;14.85;;;;;;;1.23;74.70;100669.53;2082337;84;30480;-68
2021/11/07 02:20:40;;;;;;;25.35;14.95;;;;;;;1.27;74.94;100666.00;2082269;85;27700;-66
2021/11/07 02:23:42;;;;;;;28.87;15.43;;;;;;;1.32;74.98;100662.90;2082522;84;28574;-64
2021/11/07 02:26:53;;;;;;;29.60;15.15;;;;;;;1.39;75.08;100653.17;2082731;85;31235;-65
2021/11/07 02:29:54;;;;;;;28.57;16.12;;;;;;;1.44;75.17;100651.36;2082326;84;34142;-64
2021/11/07 02:32:58;;;;;;;30.37;16.00;;;;;;;1.50;75.38;100642.09;2062189;85;30630;-64
2021/11/07 02:36:07;;;;;;;27.30;16.20;;;;;;;1.57;75.34;100649.98;2055839;86;27748;-67
2021/11/07 02:39:13;;;;;;;27.95;15.35;;;;;;;1.62;75.48;100642.46;2055534;86;29585;-65
2021/11/07 02:42:15;;;;;;;27.50;16.37;;;;;;;1.67;75.43;100638.00;2063278;85;31869;-65
2021/11/07 02:45:19;;;;;;;24.92;14.98;;;;;;;1.73;75.48;100641.48;2080944;85;34284;-65
2021/11/07 02:48:22;;;;;;;24.53;15.20;;;;;;;1.77;75.52;100638.80;2082426;85;30148;-65
2021/11/07 02:51:28;;;;;;;24.80;14.45;;;;;;;1.82;75.52;100624.27;2080114;85;27675;-65
2021/11/07 02:54:31;;;;;;;29.95;15.93;;;;;;;1.88;75.55;100610.98;2069399;86;28902;-65
2021/11/07 02:57:33;;;;;;;23.25;14.07;;;;;;;1.96;75.64;100600.34;2069456;86;31877;-67
2021/11/07 03:00:36;;;;;;;28.15;16.32;;;;;;;2.05;75.78;100595.42;2069130;86;34217;-66
2021/11/07 03:03:38;;;;;;;26.15;16.35;;;;;;;2.11;75.70;100596.23;2073222;85;29715;-65
2021/11/07 03:06:41;;;;;;;25.85;17.07;;;;;;;2.19;75.67;100597.48;2088825;84;27493;-65
2021/11/07 03:09:43;;;;;;;27.98;16.42;;;;;;;2.27;75.64;100594.75;2088278;84;28716;-67
2021/11/07 03:12:46;;;;;;;23.35;15.03;;;;;;;2.32;75.53;100588.98;2087961;84;32278;-67
2021/11/07 03:15:48;;;;;;;22.32;14.53;;;;;;;2.37;75.39;100582.31;2070866;85;35167;-67
2021/11/07 03:18:50;;;;;;;21.42;13.30;;;;;;;2.42;75.44;100584.00;2081606;85;29702;-66
2021/11/07 03:21:56;;;;;;;22.32;14.55;;;;;;;2.47;75.30;100582.66;2088262;84;27675;-69
2021/11/07 03:24:58;;;;;;;20.65;12.73;;;;;;;2.50;75.16;100580.41;2078311;84;29485;-67
2021/11/07 03:28:03;;;;;;;21.10;13.45;;;;;;;2.52;75.04;100572.87;2069478;86;31054;-67
2021/11/07 03:31:13;;;;;;;21.87;13.20;;;;;;;2.54;75.02;100561.84;2069159;86;34203;-68
2021/11/07 03:34:26;;;;;;;26.00;14.05;;;;;;;2.56;74.98;100553.44;2047462;85;29193;-66
2021/11/07 03:37:25;;;;;;;20.55;13.60;;;;;;;2.57;74.92;100540.64;2048653;86;27622;-68
2021/11/07 03:40:27;;;;;;;23.27;13.48;;;;;;;2.59;74.91;100543.26;2050132;86;28630;-65
2021/11/07 03:43:29;;;;;;;21.12;13.05;;;;;;;2.59;74.91;100543.26;2049757;86;32235;-66
2021/11/07 03:46:32;;;;;;;23.10;13.00;;;;;;;2.60;74.75;100550.30;2070653;85;33002;-68
2021/11/07 03:49:35;;;;;;;23.95;14.45;;;;;;;2.63;74.70;100556.02;2073411;85;30521;-66
2021/11/07 03:52:37;;;;;;;20.45;13.70;;;;;;;2.64;74.66;100551.16;2066364;85;28150;-66
2021/11/07 03:55:40;;;;;;;23.87;13.22;;;;;;;2.66;74.68;100546.70;2054448;86;29976;-70
2021/11/07 03:58:42;;;;;;;22.02;12.98;;;;;;;2.68;74.72;100536.97;2048150;86;31956;-68
2021/11/07 04:01:44;;;;;;;21.42;12.88;;;;;;;2.71;74.75;100535.62;2022125;86;32981;-67
2021/11/07 04:04:46;;;;;;;20.80;13.18;;;;;;;2.75;74.75;100521.46;2019334;88;29373;-66
2021/11/07 04:07:48;;;;;;;19.92;12.65;;;;;;;2.79;74.81;100512.59;2020469;86;27735;-66
2021/11/07 04:10:51;;;;;;;19.80;13.32;;;;;;;2.83;74.78;100506.80;2019232;88;29129;-69
2021/11/07 04:13:53;;;;;;;22.55;13.40;;;;;;;2.87;74.76;100501.90;2018942;88;31920;-68
2021/11/07 04:16:55;;;;;;;21.05;13.68;;;;;;;2.92;74.73;100492.56;2019172;88;34189;-63
2021/11/07 04:19:56;;;;;;;20.70;12.93;;;;;;;2.96;74.69;100483.22;2040321;86;30445;-65
2021/11/07 04:22:58;;;;;;;19.57;13.40;;;;;;;3.01;74.63;100488.44;2048735;86;27613;-65
2021/11/07 04:26:00;;;;;;;20.62;13.20;;;;;;;3.04;74.62;100470.77;2048327;86;29275;-69
2021/11/07 04:29:03;;;;;;;19.30;12.33;;;;;;;3.08;74.56;100471.58;2040206;86;31421;-71
2021/11/07 04:32:06;;;;;;;24.10;13.40;;;;;;;3.11;74.55;100464.03;2019866;88;33813;-66
2021/11/07 04:35:09;;;;;;;22.98;12.37;;;;;;;3.14;74.46;100463.98;2019763;88;30108;-67
2021/11/07 04:38:11;;;;;;;23.22;12.70;;;;;;;3.16;74.41;100465.70;2020008;88;28278;-67
2021/11/07 04:41:17;;;;;;;24.27;13.38;;;;;;;3.20;74.46;100457.28;2045960;86;29837;-64
2021/11/07 04:44:16;;;;;;;18.95;13.13;;;;;;;3.23;74.47;100453.23;2048212;86;31197;-64
2021/11/07 04:47:18;;;;;;;24.27;12.58;;;;;;;3.28;74.45;100444.77;2063376;86;34149;-65
2021/11/07 04:50:21;;;;;;;23.57;13.93;;;;;;;3.32;74.47;100447.80;2031625;86;30155;-64
2021/11/07 04:53:23;;;;;;;21.62;13.05;;;;;;;3.39;74.53;100452.53;2020239;86;27742;-63
2021/11/07 04:56:25;;;;;;;18.70;12.33;;;;;;;3.45;74.49;100445.81;2025828;87;29982;-64
2021/11/07 04:59:28;;;;;;;19.07;11.97;;;;;;;3.49;74.40;100444.83;2011813;88;32337;-64
2021/11/07 05:02:30;;;;;;;21.80;13.15;;;;;;;3.56;74.35;100435.00;2023064;87;33833;-65
2021/11/07 05:05:33;;;;;;;21.25;11.80;;;;;;;3.62;74.27;100434.03;2020622;87;29344;-64
2021/11/07 05:08:36;;;;;;;20.82;11.60;;;;;;;3.66;74.13;100430.40;2000945;89;27695;-65
2021/11/07 05:11:38;;;;;;;18.20;11.68;;;;;;;3.69;74.03;100429.02;2020676;88;29906;-64
2021/11/07 05:14:40;;;;;;;18.35;11.80;;;;;;;3.73;74.05;100424.09;2021106;88;31057;-64
2021/11/07 05:17:42;;;;;;;19.75;11.95;;;;;;;3.75;73.96;100423.62;2020275;88;34335;-65
2021/11/07 05:20:46;;;;;;;22.10;11.38;;;;;;;3.79;73.87;100415.15;2020372;87;29344;-64
2021/11/07 05:23:48;;;;;;;19.73;11.53;;;;;;;3.79;73.74;100401.47;2020396;88;27599;-65
2021/11/07 05:26:49;;;;;;;19.98;11.60;;;;;;;3.82;73.63;100385.94;2020156;88;29324;-64
2021/11/07 05:29:52;;;;;;;17.90;10.93;;;;;;;3.82;73.63;100367.39;2023755;87;31466;-63
2021/11/07 05:32:54;;;;;;;17.23;10.60;;;;;;;3.83;73.59;100369.58;2020147;87;33827;-64
2021/11/07 05:35:56;;;;;;;22.00;11.65;;;;;;;3.84;73.60;100359.39;2020457;88;29345;-64
2021/11/07 05:38:58;;;;;;;18.42;11.63;;;;;;;3.87;73.64;100358.02;2026385;87;27735;-64
2021/11/07 05:41:59;;;;;;;21.20;11.90;;;;;;;3.91;73.63;100354.41;2034132;87;28834;-64
2021/11/07 05:45:01;;;;;;;17.77;11.25;;;;;;;3.98;73.66;100348.05;2033789;87;31787;-69
2021/11/07 05:48:06;;;;;;;17.48;11.53;;;;;;;4.04;73.70;100341.30;2033854;87;33329;-66
2021/11/07 05:51:08;;;;;;;20.40;11.57;;;;;;;4.13;73.64;100340.69;2003705;88;29339;-65
2021/11/07 05:54:10;;;;;;;21.82;12.13;;;;;;;4.20;73.66;100342.28;2004182;86;27689;-66
2021/11/07 05:57:12;;;;;;;20.97;11.83;;;;;;;4.28;73.61;100332.38;1977387;90;29552;-67
2021/11/07 06:00:16;;;;;;;20.32;12.73;;;;;;;4.35;73.61;100333.97;2017003;87;31445;-67
2021/11/07 06:03:19;;;;;;;20.92;13.35;;;;;;;4.45;73.55;100349.69;2038002;87;36845;-64
2021/11/07 06:06:21;;;;;;;21.07;12.10;;;;;;;4.54;73.50;100354.32;2037913;87;30440;-64
2021/11/07 06:09:22;;;;;;;20.02;11.83;;;;;;;4.64;73.30;100328.41;2032947;87;28187;-68
2021/11/07 06:12:24;;;;;;;16.97;11.30;;;;;;;4.72;73.19;100322.91;2015143;88;29076;-68
2021/11/07 06:15:27;;;;;;;18.48;12.28;;;;;;;4.81;73.15;100323.13;1943899;91;33319;-67
2021/11/07 06:18:30;;;;;;;20.92;11.73;;;;;;;4.88;73.07;100316.77;1959716;90;33708;-64
2021/11/07 06:21:33;;;;;;;20.05;12.05;;;;;;;4.95;72.97;100305.09;1986435;89;29341;-65
2021/11/07 06:24:35;;;;;;;18.40;12.30;;;;;;;5.02;72.91;100307.12;1989368;89;28206;-66
2021/11/07 06:27:37;;;;;;;20.70;12.63;;;;;;;5.10;72.77;100314.41;1989246;89;29834;-68
2021/11/07 06:30:39;;;;;;;21.20;13.32;;;;;;;5.21;72.80;100319.91;1989228;89;32230;-67
2021/11/07 06:33:41;;;;;;;19.60;12.65;;;;;;;5.29;72.55;100321.89;1989309;89;33432;-68
2021/11/07 06:36:43;;;;;;;23.25;12.55;;;;;;;5.39;72.48;100317.19;1961289;89;29462;-67
2021/11/07 06:39:46;;;;;;;21.82;12.98;;;;;;;5.49;72.44;100313.35;1943978;91;27902;-69
2021/11/07 06:42:49;;;;;;;18.12;11.15;;;;;;;5.57;72.20;100307.81;1964636;89;28684;-66
2021/11/07 06:45:50;;;;;;;19.00;12.15;;;;;;;5.63;72.05;100303.66;2010948;86;31044;-63
2021/11/07 06:48:52;;;;;;;17.02;10.65;;;;;;;5.67;71.79;100296.02;2048710;86;32942;-63
2021/11/07 06:51:54;;;;;;;18.00;11.28;;;;;;;5.70;71.58;100292.39;2048451;86;29988;-65
2021/11/07 06:55:00;;;;;;;19.20;11.53;;;;;;;5.70;71.36;100297.27;2062783;85;27955;-65
2021/11/07 06:58:02;;;;;;;17.98;11.53;;;;;;;5.71;71.34;100302.97;2065676;86;29310;-68
2021/11/07 07:01:04;;;;;;;21.73;11.53;;;;;;;5.73;71.30;100311.77;2066151;86;31977;-68
2021/11/07 07:04:06;;;;;;;17.42;12.15;;;;;;;5.76;71.18;100303.70;2059365;85;33830;-68
2021/11/07 07:07:08;;;;;;;16.23;10.60;;;;;;;5.83;71.18;100300.41;2052133;86;29442;-68
2021/11/07 07:10:16;;;;;;;17.10;10.48;;;;;;;5.90;70.95;100294.00;2052369;86;27723;-65
2021/11/07 07:13:20;;;;;;;16.75;10.78;;;;;;;6.00;70.94;100292.41;2051609;86;28596;-68
2021/11/07 07:16:28;;;;;;;16.80;11.48;;;;;;;6.12;70.92;100289.83;2051032;86;31860;-68
2021/11/07 07:28:54;;;;;;;15.28;10.68;;;;;;;6.94;70.31;100273.84;2051352;86;29286;-67
2021/11/07 07:34:55;;;;;;;15.00;9.70;;;;;;;7.55;69.63;100241.88;2067886;86;33388;-65
2021/11/07 07:37:57;;;;;;;14.93;9.13;;;;;;;8.18;68.82;100216.72;2068164;86;29342;-68
2021/11/07 07:40:59;;;;;;;13.75;9.25;;;;;;;8.18;68.82;100216.72;2067737;86;27697;-69
2021/11/07 07:44:07;;;;;;;13.58;8.85;;;;;;;8.40;67.90;100214.47;2068016;86;29068;-66
2021/11/07 07:47:05;;;;;;;17.92;10.35;;;;;;;8.38;67.73;100210.14;2067187;86;30935;-67
2021/11/07 07:50:08;;;;;;;12.93;8.63;;;;;;;8.59;67.58;100198.59;2068067;86;33368;-68
2021/11/07 07:53:11;;;;;;;16.05;8.58;;;;;;;8.96;67.62;100180.06;2068019;84;30431;-67
2021/11/07 07:56:14;;;;;;;11.48;9.10;;;;;;;9.25;66.78;100175.20;2051357;86;27593;-66
2021/11/07 07:59:16;;;;;;;13.00;9.35;;;;;;;9.47;66.25;100172.37;2065824;86;29897;-65
2021/11/07 08:02:18;;;;;;;13.65;9.08;;;;;;;9.70;65.62;100174.44;2066323;84;31048;-66
2021/11/07 08:05:20;;;;;;;9.95;7.62;;;;;;;9.92;65.25;100175.59;2066653;86;33708;-66
2021/11/07 08:08:22;;;;;;;13.08;8.75;;;;;;;10.14;64.68;100175.88;2066139;86;29716;-66
2021/11/07 08:11:24;;;;;;;12.80;8.80;;;;;;;10.24;64.20;100168.27;2066608;86;27689;-67
2021/11/07 08:14:26;;;;;;;13.62;8.60;;;;;;;10.31;64.03;100162.52;2066236;86;29456;-67
2021/11/07 08:17:28;;;;;;;15.23;8.35;;;;;;;10.42;63.73;100159.78;2065891;86;31890;-62
2021/11/07 08:20:30;;;;;;;11.18;7.47;;;;;;;10.61;63.75;100160.56;2066068;86;32940;-62
2021/11/07 08:23:32;;;;;;;13.72;7.78;;;;;;;10.84;63.38;100146.91;2066837;86;29935;-66
2021/11/07 08:26:34;;;;;;;9.58;7.03;;;;;;;10.98;62.18;100128.75;2050931;86;27670;-63
2021/11/07 08:29:36;;;;;;;11.05;7.28;;;;;;;11.08;61.05;100135.33;2068194;85;28609;-63
2021/11/07 08:32:38;;;;;;;8.78;6.78;;;;;;;11.17;61.41;100132.13;2067574;85;32260;-63
2021/11/07 08:35:43;;;;;;;9.83;7.05;;;;;;;11.30;61.13;100132.82;2067551;86;33989;-62
2021/11/07 08:38:49;;;;;;;14.63;7.75;;;;;;;11.34;60.64;100143.28;2067669;86;30528;-64
2021/11/07 08:41:59;;;;;;;9.00;7.00;;;;;;;11.33;60.49;100144.72;2067206;86;27711;-62
2021/11/07 09:01:44;;;;;;;14.70;8.90;;;;;;;10.77;59.30;100133.81;2084234;85;29906;-65
2021/11/07 09:04:57;;;;;;;12.18;8.68;;;;;;;10.67;58.82;100134.41;2083539;85;32298;-66
2021/11/07 09:08:00;;;;;;;15.15;8.95;;;;;;;10.56;58.05;100126.45;2096512;84;32762;-62
2021/11/07 09:10:58;;;;;;;11.50;8.33;;;;;;;10.43;57.28;100126.22;2098374;84;29772;-63
2021/11/07 09:13:59;;;;;;;13.53;9.15;;;;;;;10.32;57.51;100128.56;2099696;84;27686;-64
2021/11/07 09:17:05;;;;;;;13.43;9.00;;;;;;;10.20;57.56;100119.34;2084249;85;29595;-63
2021/11/07 09:20:09;;;;;;;12.98;8.85;;;;;;;10.14;57.65;100112.49;2083745;85;31044;-64
2021/11/07 09:23:19;;;;;;;16.42;9.03;;;;;;;10.09;58.20;100103.85;2070205;84;32971;-65
2021/11/07 09:29:29;;;;;;;14.65;9.73;;;;;;;9.89;57.29;100102.16;2076600;84;27702;-63
2021/11/07 09:32:48;;;;;;;12.50;8.95;;;;;;;9.82;57.29;100089.56;2076404;84;28484;-63
2021/11/07 09:45:32;;;;;;;14.28;9.25;;;;;;;9.81;57.59;100078.95;2084771;85;27694;-68
2021/11/07 09:48:36;;;;;;;12.13;8.70;;;;;;;9.83;57.68;100068.55;2084143;85;28663;-69
2021/11/07 09:51:39;;;;;;;;;;;;;;;9.83;57.77;100067.22;2080077;85;32928;-67
2021/11/07 09:54:45;;;;;;;10.07;7.03;;;;;;;9.84;57.07;100082.81;2059362;85;32906;-69
2021/11/07 09:57:50;;;;;;;15.85;9.35;;;;;;;9.83;57.70;100063.69;2051668;86;30183;-67
2021/11/07 10:00:54;;;;;;;15.55;9.48;;;;;;;9.87;57.72;100069.26;2066120;86;27669;-63
2021/11/07 10:03:58;;;;;;;17.65;11.60;;;;;;;9.86;57.94;100068.86;2066717;84;29089;-67
2021/11/07 10:07:28;;;;;;;14.68;11.10;;;;;;;9.86;58.46;100063.51;2066288;86;31604;-66
2021/11/07 10:10:34;;;;;;;13.65;9.83;;;;;;;9.83;58.63;100063.20;1978143;89;33779;-68
2021/11/07 10:13:36;;;;;;;17.12;9.53;;;;;;;9.79;58.48;100052.25;1987319;89;29342;-62
2021/11/07 10:16:46;;;;;;;13.53;10.38;;;;;;;9.77;58.47;100045.27;1977259;90;27803;-62
2021/11/07 10:20:19;;;;;;;14.40;10.98;;;;;;;9.79;58.47;100043.38;1976622;90;29687;-63
2021/11/07 10:23:28;;;;;;;15.48;10.32;;;;;;;9.86;58.56;100043.44;1977009;90;32253;-66
2021/11/07 10:26:35;;;;;;;13.38;9.65;;;;;;;9.87;58.42;100035.81;1976191;90;34224;-63
2021/11/07 10:29:43;;;;;;;16.65;10.58;;;;;;;9.87;58.28;100025.99;1976963;90;29346;-64
2021/11/07 10:32:56;;;;;;;16.45;10.03;;;;;;;9.85;58.41;100031.89;1976617;90;27728;-64
2021/11/07 10:42:21;;;;;;;21.10;11.73;;;;;;;9.83;58.23;100015.05;1978450;90;33199;-65
2021/11/07 10:45:27;;;;;;;18.15;11.22;;;;;;;9.82;57.95;100021.83;1977484;86;29788;-63
2021/11/07 10:54:55;;;;;;;16.15;11.15;;;;;;;9.90;58.22;100016.93;2066776;85;31217;-62
2021/11/07 10:58:00;;;;;;;18.40;11.30;;;;;;;10.10;58.28;100008.34;2069486;86;33005;-62
2021/11/07 11:01:12;;;;;;;15.70;11.08;;;;;;;10.25;58.31;100010.21;2070542;85;29530;-61
2021/11/07 11:04:14;;;;;;;19.25;12.88;;;;;;;10.40;58.01;100009.03;2069770;86;27613;-62
2021/11/07 11:07:17;;;;;;;18.62;11.18;;;;;;;10.48;58.03;100004.14;2069152;86;29577;-63
2021/11/07 11:10:23;;;;;;;17.98;11.73;;;;;;;10.56;58.11;100006.41;2074801;85;32265;-65
2021/11/07 11:13:38;;;;;;;16.57;9.80;;;;;;;10.62;57.88;99994.88;2088893;84;33991;-63
2021/11/07 11:20:20;;;;;;;15.83;11.03;;;;;;;10.75;57.73;99996.88;2088363;85;27652;-67
2021/11/07 11:23:22;;;;;;;15.38;9.60;;;;;;;10.86;57.58;99994.94;2086440;84;29053;-67
2021/11/07 11:26:41;;;;;;;16.12;10.88;;;;;;;10.98;57.49;99986.20;2079276;84;31857;-68
2021/11/07 11:32:58;;;;;;;16.02;10.05;;;;;;;11.33;57.59;99979.30;2069255;86;30530;-69
2021/11/07 11:36:15;;;;;;;15.35;10.13;;;;;;;11.48;56.74;99977.55;2066987;86;27707;-69
2021/11/07 11:39:21;;;;;;;12.60;9.63;;;;;;;11.60;56.81;99966.55;2079755;85;29998;-69
2021/11/07 11:42:28;;;;;;;13.95;9.25;;;;;;;11.72;56.83;99967.64;2087692;84;32330;-62
2021/11/07 11:45:34;;;;;;;13.13;9.65;;;;;;;11.83;56.68;99961.63;2076890;85;33141;-69
2021/11/07 11:52:17;;;;;;;12.37;9.33;;;;;;;11.86;56.22;99954.25;2055254;86;27720;-68
2021/11/07 11:55:29;;;;;;;17.75;9.33;;;;;;;11.84;56.52;99953.48;2057535;86;28826;-63
2021/11/07 11:59:01;;;;;;;13.93;8.88;;;;;;;11.86;56.58;99952.06;2073774;84;31161;-67
2021/11/07 12:02:21;;;;;;;12.82;9.30;;;;;;;11.83;56.32;99941.01;2098166;84;34215;-63
2021/11/07 12:05:32;;;;;;;13.83;8.65;;;;;;;11.78;56.39;99932.39;2098185;84;29335;-62
2021/11/07 12:08:37;;;;;;;11.33;8.78;;;;;;;11.76;56.23;99923.57;2088800;84;27869;-65
2021/11/07 12:11:56;;;;;;;15.72;9.70;;;;;;;11.70;56.22;99920.78;2066227;86;29330;-64
2021/11/07 12:15:08;;;;;;;14.47;10.23;;;;;;;11.68;56.11;99921.81;2065234;86;32386;-62
2021/11/07 12:18:11;;;;;;;11.55;8.78;;;;;;;11.64;56.16;99918.46;2071655;84;34317;-63
2021/11/07 12:21:13;;;;;;;12.50;9.18;;;;;;;11.58;56.11;99913.95;2084191;85;29390;-64
2021/11/07 12:24:32;;;;;;;13.05;9.15;;;;;;;11.53;55.98;99923.13;2084395;85;27699;-63
2021/11/07 12:27:43;;;;;;;11.60;7.97;;;;;;;11.52;56.08;99917.86;2083682;85;28880;-63
2021/11/07 12:30:44;;;;;;;12.28;9.18;;;;;;;11.53;56.18;99910.20;2083520;85;31892;-67
2021/11/07 12:34:02;;;;;;;17.73;11.53;;;;;;;11.53;56.14;99913.73;2088939;84;32979;-62
2021/11/07 12:41:02;;;;;;;10.55;8.08;;;;;;;11.52;56.17;99898.59;2066059;86;27698;-65
2021/11/07 12:44:06;;;;;;;11.10;7.25;;;;;;;11.58;56.38;99888.45;2065758;86;29931;-62
2021/11/07 12:47:11;;;;;;;13.90;8.35;;;;;;;11.60;56.25;99882.03;2066730;84;31677;-62
2021/11/07 12:50:12;;;;;;;10.15;8.03;;;;;;;11.61;56.02;99878.39;2066055;86;33125;-66
2021/11/07 12:53:14;;;;;;;13.35;10.72;;;;;;;11.57;56.16;99880.02;2066063;86;30538;-66
2021/11/07 12:56:30;;;;;;;14.10;9.30;;;;;;;11.49;56.13;99878.69;2067778;84;27756;-65
2021/11/07 12:59:51;;;;;;;14.85;9.95;;;;;;;11.44;56.14;99880.77;2069405;86;28762;-65
2021/11/07 13:02:53;;;;;;;15.45;10.65;;;;;;;11.37;56.15;99881.63;2069322;84;32302;-62
2021/11/07 13:05:56;;;;;;;15.25;10.32;;;;;;;11.26;56.14;99885.40;2069303;85;33399;-67
2021/11/07 13:09:01;;;;;;;16.45;10.85;;;;;;;11.18;56.23;99884.52;2080759;84;29777;-66
2021/11/07 13:12:21;;;;;;;16.25;10.38;;;;;;;11.10;56.31;99882.77;2099676;84;28039;-66
2021/11/07 13:25:30;;;;;;;16.32;11.60;;;;;;;10.79;56.64;99889.92;2046902;86;29707;-64
2021/11/07 13:32:00;;;;;;;16.57;8.78;;;;;;;10.64;56.73;99892.52;2046684;86;29059;-68
2021/11/07 13:35:13;;;;;;;18.20;10.50;;;;;;;10.55;56.64;99895.70;2041709;86;31209;-64
2021/11/07 13:38:17;;;;;;;19.65;11.95;;;;;;;10.47;56.83;99902.83;2036175;87;33743;-61
2021/11/07 13:41:25;;;;;;;15.45;10.40;;;;;;;10.41;56.86;99907.66;2009569;87;30775;-64
2021/11/07 13:44:29;;;;;;;13.90;9.93;;;;;;;10.31;56.72;99893.88;2021208;87;28288;-65
2021/11/07 13:47:37;;;;;;;;;;;;;;;10.22;56.89;99899.27;2029769;87;27693;-63
2021/11/07 13:50:39;;;;;;;16.42;10.55;;;;;;;10.16;56.81;99896.95;2020855;88;30324;-68
2021/11/07 13:53:42;;;;;;;28.73;14.80;;;;;;;10.06;56.77;99889.89;2020570;88;33867;-64
2021/11/07 13:56:46;;;;;;;31.05;14.80;;;;;;;9.98;56.91;99888.08;2020584;85;30741;-66
2021/11/07 13:59:48;;;;;;;30.25;16.77;;;;;;;9.94;57.05;99891.86;2021192;87;27710;-65
2021/11/07 14:02:54;;;;;;;19.40;10.90;;;;;;;9.88;57.13;99882.36;2020996;87;29098;-67
2021/11/07 14:06:11;;;;;;;17.02;9.70;;;;;;;9.83;57.25;99883.10;2031930;87;31019;-64
2021/11/07 14:09:10;;;;;;;14.98;9.85;;;;;;;9.79;57.41;99889.55;2035050;87;32989;-65
2021/11/07 14:12:33;;;;;;;15.53;9.63;;;;;;;9.77;57.47;99890.10;2037196;87;29368;-66
2021/11/07 14:15:40;;;;;;;16.17;10.30;;;;;;;9.73;57.47;99880.05;1972964;89;27799;-65
2021/11/07 14:18:46;;;;;;;19.98;10.82;;;;;;;9.68;57.55;99880.27;1972680;90;28722;-60
2021/11/07 14:21:53;;;;;;;21.85;11.97;;;;;;;9.65;57.53;99882.25;1972831;90;31884;-63
2021/11/07 14:25:06;;;;;;;28.17;15.25;;;;;;;9.60;57.75;99870.95;1972395;90;32826;-62
2021/11/07 14:28:17;;;;;;;22.98;11.93;;;;;;;9.57;57.90;99878.64;1972390;90;29351;-68
2021/11/07 14:31:16;;;;;;;25.10;16.00;;;;;;;9.55;58.04;99877.85;1973143;90;27649;-64
2021/11/07 14:34:23;;;;;;;17.50;11.00;;;;;;;9.52;58.03;99876.21;1967258;89;28879;-69
2021/11/07 14:43:59;;;;;;;26.65;13.65;;;;;;;9.45;58.38;99876.12;1987784;89;29941;-65
2021/11/07 14:50:50;;;;;;;21.15;11.20;;;;;;;9.41;58.58;99870.57;1996967;88;28739;-66
2021/11/07 14:53:58;;;;;;;18.12;10.48;;;;;;;9.38;58.76;99860.03;2020060;87;30453;-68
2021/11/07 15:00:16;;;;;;;19.65;11.20;;;;;;;9.33;58.94;99866.95;2051720;86;29833;-67
2021/11/07 15:03:19;;;;;;;21.82;11.78;;;;;;;9.33;59.01;99871.42;2050316;86;27593;-68
2021/11/07 15:06:31;;;;;;;19.52;11.12;;;;;;;9.31;59.18;99875.98;2086369;85;28408;-67
2021/11/07 15:09:34;;;;;;;24.72;12.13;;;;;;;9.30;59.25;99883.14;2089588;84;31086;-68
2021/11/07 15:15:42;;;;;;;19.15;10.93;;;;;;;9.25;59.42;99882.50;2090636;85;30478;-68
2021/11/07 15:22:09;;;;;;;18.17;9.98;;;;;;;9.22;59.97;99881.31;2090577;85;29908;-69
2021/11/07 15:25:09;;;;;;;19.33;10.43;;;;;;;9.22;60.18;99890.67;2090433;84;32480;-67
2021/11/07 15:28:15;;;;;;;18.57;10.20;;;;;;;9.19;60.50;99881.02;2090422;84;33698;-69
2021/11/07 15:31:17;;;;;;;16.70;11.30;;;;;;;9.17;60.60;99881.56;2090331;84;30519;-69
2021/11/07 15:34:39;;;;;;;15.10;10.28;;;;;;;9.13;60.92;99886.66;2087742;84;27691;-68
2021/11/07 15:37:41;;;;;;;17.62;11.33;;;;;;;9.08;60.99;99892.73;2084189;84;28703;-69
2021/11/07 15:40:43;;;;;;;18.00;11.30;;;;;;;9.03;61.22;99892.08;2083892;85;32325;-69
2021/11/07 15:43:49;;;;;;;16.73;10.13;;;;;;;9.03;61.52;99893.42;2083440;85;34193;-69
2021/11/07 15:46:56;;;;;;;18.40;10.65;;;;;;;9.00;61.66;99891.78;2083936;85;30139;-68
2021/11/07 15:50:04;;;;;;;23.77;14.30;;;;;;;8.98;61.84;99893.66;2083453;85;27729;-68
2021/11/07 15:56:23;;;;;;;24.60;13.68;;;;;;;8.93;61.86;99889.00;2084104;84;31047;-69
2021/11/07 15:59:34;;;;;;;20.50;14.70;;;;;;;8.90;61.96;99885.14;2083098;85;33400;-68
2021/11/07 16:15:22;;;;;;;22.58;14.63;;;;;;;8.85;62.38;99897.88;1976685;90;33272;-67
2021/11/07 16:18:20;;;;;;;26.90;15.43;;;;;;;8.85;62.38;99904.06;1975466;90;29763;-65
2021/11/07 16:21:24;;;;;;;34.67;17.87;;;;;;;8.83;62.40;99904.61;1976784;90;27779;-62
2021/11/07 16:24:31;;;;;;;30.10;16.07;;;;;;;8.84;62.39;99901.48;1976741;90;29090;-67
2021/11/07 16:27:33;;;;;;;32.38;16.52;;;;;;;8.81;62.44;99902.03;1976779;90;32261;-62
2021/11/07 16:30:35;;;;;;;31.10;16.25;;;;;;;8.79;62.40;99905.24;1976264;90;34218;-62
2021/11/07 16:33:41;;;;;;;59.48;25.17;;;;;;;8.76;62.40;99905.38;1976987;90;29675;-63